sensor_id;sensor_type;location;lat;lon;timestamp;pressure;altitude;pressure_sealevel;temperature;humidity
59104;BME280;51449;51.676;5.812;2023-03-15T00:02:04;101130.53;;;3.93;76.98
59104;BME280;51449;51.676;5.812;2023-03-15T00:04:26;101136.53;;;3.90;77.15
59104;BME280;51449;51.676;5.812;2023-03-15T00:06:48;101127.81;;;3.88;77.36
59104;BME280;51449;51.676;5.812;2023-03-15T00:09:10;101131.66;;;3.86;76.86
59104;BME280;51449;51.676;5.812;2023-03-15T00:11:31;101121.91;;;3.80;77.31
59104;BME280;51449;51.676;5.812;2023-03-15T00:13:53;101121.91;;;3.70;77.87
59104;BME280;51449;51.676;5.812;2023-03-15T00:16:15;101129.34;;;3.59;77.61
59104;BME280;51449;51.676;5.812;2023-03-15T00:18:38;101133.47;;;3.52;77.85
59104;BME280;51449;51.676;5.812;2023-03-15T00:20:59;101133.22;;;3.43;77.66
59104;BME280;51449;51.676;5.812;2023-03-15T00:23:22;101134.34;;;3.37;78.08
59104;BME280;51449;51.676;5.812;2023-03-15T00:25:47;101146.88;;;3.33;77.72
59104;BME280;51449;51.676;5.812;2023-03-15T00:28:11;101139.53;;;3.28;78.05
59104;BME280;51449;51.676;5.812;2023-03-15T00:30:34;101151.53;;;3.27;78.02
59104;BME280;51449;51.676;5.812;2023-03-15T00:32:56;101136.56;;;3.25;77.97
59104;BME280;51449;51.676;5.812;2023-03-15T00:35:19;101142.81;;;3.25;78.24
59104;BME280;51449;51.676;5.812;2023-03-15T00:37:41;101140.34;;;3.24;78.01
59104;BME280;51449;51.676;5.812;2023-03-15T00:40:04;101141.72;;;3.21;77.68
59104;BME280;51449;51.676;5.812;2023-03-15T00:42:27;101145.81;;;3.24;78.06
59104;BME280;51449;51.676;5.812;2023-03-15T00:44:49;101145.81;;;3.24;77.82
59104;BME280;51449;51.676;5.812;2023-03-15T00:47:12;101138.44;;;3.24;77.98
59104;BME280;51449;51.676;5.812;2023-03-15T00:49:35;101148.50;;;3.29;78.00
59104;BME280;51449;51.676;5.812;2023-03-15T00:51:56;101152.59;;;3.31;78.43
59104;BME280;51449;51.676;5.812;2023-03-15T00:54:18;101149.59;;;3.33;78.26
59104;BME280;51449;51.676;5.812;2023-03-15T00:56:40;101163.47;;;3.36;78.54
59104;BME280;51449;51.676;5.812;2023-03-15T00:59:02;101162.66;;;3.36;79.23
59104;BME280;51449;51.676;5.812;2023-03-15T01:01:26;101162.09;;;3.34;79.56
59104;BME280;51449;51.676;5.812;2023-03-15T01:03:50;101152.31;;;3.33;80.02
59104;BME280;51449;51.676;5.812;2023-03-15T01:06:17;101166.47;;;3.35;80.24
59104;BME280;51449;51.676;5.812;2023-03-15T01:08:44;101165.66;;;3.34;80.69
59104;BME280;51449;51.676;5.812;2023-03-15T01:11:10;101169.44;;;3.38;80.05
59104;BME280;51449;51.676;5.812;2023-03-15T01:13:34;101177.06;;;3.36;79.67
59104;BME280;51449;51.676;5.812;2023-03-15T01:15:56;101183.66;;;3.30;80.25
59104;BME280;51449;51.676;5.812;2023-03-15T01:18:18;101176.56;;;3.29;80.08
59104;BME280;51449;51.676;5.812;2023-03-15T01:20:42;101183.94;;;3.24;79.60
59104;BME280;51449;51.676;5.812;2023-03-15T01:23:05;101191.03;;;3.19;79.77
59104;BME280;51449;51.676;5.812;2023-03-15T01:25:27;101192.38;;;3.17;79.52
59104;BME280;51449;51.676;5.812;2023-03-15T01:27:48;101195.09;;;3.17;79.30
59104;BME280;51449;51.676;5.812;2023-03-15T01:30:10;101201.09;;;3.19;79.57
59104;BME280;51449;51.676;5.812;2023-03-15T01:32:32;101201.91;;;3.14;79.57
59104;BME280;51449;51.676;5.812;2023-03-15T01:34:55;101204.63;;;3.14;79.65
59104;BME280;51449;51.676;5.812;2023-03-15T01:37:17;101200.84;;;3.10;79.97
59104;BME280;51449;51.676;5.812;2023-03-15T01:39:40;101210.38;;;3.08;80.08
59104;BME280;51449;51.676;5.812;2023-03-15T01:42:02;101220.44;;;3.02;80.61
59104;BME280;51449;51.676;5.812;2023-03-15T01:44:54;101219.06;;;2.99;80.71
59104;BME280;51449;51.676;5.812;2023-03-15T01:47:18;101220.19;;;2.88;80.08
59104;BME280;51449;51.676;5.812;2023-03-15T01:49:42;101223.44;;;2.80;79.72
59104;BME280;51449;51.676;5.812;2023-03-15T01:52:28;101230.53;;;2.76;79.53
59104;BME280;51449;51.676;5.812;2023-03-15T01:55:01;101226.97;;;2.70;79.35
59104;BME280;51449;51.676;5.812;2023-03-15T01:57:36;101228.59;;;2.66;80.07
59104;BME280;51449;51.676;5.812;2023-03-15T02:00:09;101225.03;;;2.66;79.94
59104;BME280;51449;51.676;5.812;2023-03-15T02:02:55;101217.44;;;2.63;80.15
59104;BME280;51449;51.676;5.812;2023-03-15T02:05:27;101219.34;;;2.62;80.91
59104;BME280;51449;51.676;5.812;2023-03-15T02:07:56;101213.91;;;2.62;80.71
59104;BME280;51449;51.676;5.812;2023-03-15T02:10:25;101207.66;;;2.67;80.92
59104;BME280;51449;51.676;5.812;2023-03-15T02:12:54;101209.28;;;2.68;80.78
59104;BME280;51449;51.676;5.812;2023-03-15T02:15:17;101210.13;;;2.68;81.03
59104;BME280;51449;51.676;5.812;2023-03-15T02:17:42;101210.63;;;2.70;81.49
59104;BME280;51449;51.676;5.812;2023-03-15T02:23:12;101226.16;;;2.75;81.13
59104;BME280;51449;51.676;5.812;2023-03-15T02:28:15;101216.06;;;2.75;80.84
59104;BME280;51449;51.676;5.812;2023-03-15T02:30:39;101225.63;;;2.78;80.73
59104;BME280;51449;51.676;5.812;2023-03-15T02:33:05;101220.69;;;2.85;80.62
59104;BME280;51449;51.676;5.812;2023-03-15T02:35:32;101219.63;;;2.91;80.23
59104;BME280;51449;51.676;5.812;2023-03-15T02:37:54;101223.72;;;2.94;80.25
59104;BME280;51449;51.676;5.812;2023-03-15T02:40:21;101220.72;;;2.95;80.69
59104;BME280;51449;51.676;5.812;2023-03-15T02:42:45;101230.25;;;2.98;80.49
59104;BME280;51449;51.676;5.812;2023-03-15T02:45:12;101218.25;;;2.99;80.67
59104;BME280;51449;51.676;5.812;2023-03-15T02:47:34;101222.34;;;3.02;80.88
59104;BME280;51449;51.676;5.812;2023-03-15T02:49:55;101232.16;;;3.03;80.98
59104;BME280;51449;51.676;5.812;2023-03-15T02:52:17;101224.25;;;3.06;80.45
59104;BME280;51449;51.676;5.812;2023-03-15T02:54:39;101223.13;;;3.07;80.67
59104;BME280;51449;51.676;5.812;2023-03-15T02:57:03;101229.69;;;3.11;80.56
59104;BME280;51449;51.676;5.812;2023-03-15T02:59:26;101234.88;;;3.13;80.33
59104;BME280;51449;51.676;5.812;2023-03-15T03:01:48;101249.84;;;3.10;80.58
59104;BME280;51449;51.676;5.812;2023-03-15T03:04:09;101250.09;;;3.09;81.16
59104;BME280;51449;51.676;5.812;2023-03-15T03:06:31;101245.75;;;3.08;81.16
59104;BME280;51449;51.676;5.812;2023-03-15T03:08:55;101252.28;;;3.12;81.34
59104;BME280;51449;51.676;5.812;2023-03-15T03:11:17;101256.09;;;3.16;80.86
59104;BME280;51449;51.676;5.812;2023-03-15T03:13:40;101256.63;;;3.18;81.35
59104;BME280;51449;51.676;5.812;2023-03-15T03:16:02;101269.44;;;3.17;81.57
59104;BME280;51449;51.676;5.812;2023-03-15T03:18:26;101266.97;;;3.21;81.19
59104;BME280;51449;51.676;5.812;2023-03-15T03:20:49;101279.22;;;3.24;80.71
59104;BME280;51449;51.676;5.812;2023-03-15T03:23:11;101283.06;;;3.22;80.53
59104;BME280;51449;51.676;5.812;2023-03-15T03:25:35;101288.75;;;3.21;81.21
59104;BME280;51449;51.676;5.812;2023-03-15T03:27:57;101289.56;;;3.21;80.78
59104;BME280;51449;51.676;5.812;2023-03-15T03:30:21;101293.66;;;3.24;80.66
59104;BME280;51449;51.676;5.812;2023-03-15T03:32:45;101302.66;;;3.25;80.83
59104;BME280;51449;51.676;5.812;2023-03-15T03:35:07;101299.66;;;3.21;80.81
59104;BME280;51449;51.676;5.812;2023-03-15T03:37:29;101311.63;;;3.20;80.31
59104;BME280;51449;51.676;5.812;2023-03-15T03:39:58;101310.84;;;3.19;80.14
59104;BME280;51449;51.676;5.812;2023-03-15T03:42:19;101311.09;;;3.18;80.10
59104;BME280;51449;51.676;5.812;2023-03-15T03:44:41;101311.63;;;3.15;79.89
59104;BME280;51449;51.676;5.812;2023-03-15T03:47:03;101314.88;;;3.12;80.08
59104;BME280;51449;51.676;5.812;2023-03-15T03:49:25;101327.97;;;3.10;79.76
59104;BME280;51449;51.676;5.812;2023-03-15T03:51:46;101324.97;;;3.06;80.04
59104;BME280;51449;51.676;5.812;2023-03-15T03:54:08;101329.03;;;3.04;80.24
59104;BME280;51449;51.676;5.812;2023-03-15T03:56:30;101336.41;;;2.98;79.91
59104;BME280;51449;51.676;5.812;2023-03-15T03:58:52;101343.72;;;2.97;79.87
59104;BME280;51449;51.676;5.812;2023-03-15T04:01:21;101347.00;;;2.94;80.21
59104;BME280;51449;51.676;5.812;2023-03-15T04:03:45;101353.78;;;2.92;79.93
59104;BME280;51449;51.676;5.812;2023-03-15T04:06:09;101347.78;;;2.85;79.80
59104;BME280;51449;51.676;5.812;2023-03-15T04:08:35;101342.88;;;2.82;80.44
59104;BME280;51449;51.676;5.812;2023-03-15T04:10:57;101342.09;;;2.81;80.29
59104;BME280;51449;51.676;5.812;2023-03-15T04:13:23;101352.16;;;2.81;80.18
59104;BME280;51449;51.676;5.812;2023-03-15T04:15:46;101354.03;;;2.80;80.09
59104;BME280;51449;51.676;5.812;2023-03-15T04:18:09;101360.56;;;2.79;79.62
59104;BME280;51449;51.676;5.812;2023-03-15T04:20:33;101364.66;;;2.82;79.63
59104;BME280;51449;51.676;5.812;2023-03-15T04:22:56;101369.84;;;2.83;79.28
59104;BME280;51449;51.676;5.812;2023-03-15T04:25:28;101369.00;;;2.83;79.07
59104;BME280;51449;51.676;5.812;2023-03-15T04:28:02;101375.28;;;2.83;79.16
59104;BME280;51449;51.676;5.812;2023-03-15T04:30:43;101374.44;;;2.83;78.68
59104;BME280;51449;51.676;5.812;2023-03-15T04:33:20;101380.19;;;2.81;78.55
59104;BME280;51449;51.676;5.812;2023-03-15T04:36:07;101381.25;;;2.80;78.38
59104;BME280;51449;51.676;5.812;2023-03-15T04:38:29;101389.41;;;2.80;78.47
59104;BME280;51449;51.676;5.812;2023-03-15T04:41:12;101388.34;;;2.81;78.55
59104;BME280;51449;51.676;5.812;2023-03-15T04:43:56;101394.28;;;2.73;78.63
59104;BME280;51449;51.676;5.812;2023-03-15T04:46:36;101402.41;;;2.63;78.82
59104;BME280;51449;51.676;5.812;2023-03-15T04:49:16;101405.94;;;2.58;79.10
59104;BME280;51449;51.676;5.812;2023-03-15T04:51:57;101400.22;;;2.60;79.61
59104;BME280;51449;51.676;5.812;2023-03-15T04:54:34;101393.69;;;2.61;79.40
59104;BME280;51449;51.676;5.812;2023-03-15T04:57:06;101405.13;;;2.63;79.21
59104;BME280;51449;51.676;5.812;2023-03-15T05:00:04;101408.09;;;2.56;79.90
59104;BME280;51449;51.676;5.812;2023-03-15T05:02:46;101414.88;;;2.53;79.50
59104;BME280;51449;51.676;5.812;2023-03-15T05:05:43;101417.06;;;2.51;79.81
59104;BME280;51449;51.676;5.812;2023-03-15T05:08:26;101420.59;;;2.52;80.13
59104;BME280;51449;51.676;5.812;2023-03-15T05:11:06;101429.56;;;2.52;80.05
59104;BME280;51449;51.676;5.812;2023-03-15T05:13:39;101434.47;;;2.55;80.22
59104;BME280;51449;51.676;5.812;2023-03-15T05:16:09;101436.38;;;2.55;79.90
59104;BME280;51449;51.676;5.812;2023-03-15T05:19:03;101430.94;;;2.55;80.20
59104;BME280;51449;51.676;5.812;2023-03-15T05:21:27;101437.47;;;2.54;79.98
59104;BME280;51449;51.676;5.812;2023-03-15T05:24:25;101442.06;;;2.48;80.54
59104;BME280;51449;51.676;5.812;2023-03-15T05:27:01;101433.38;;;2.51;79.77
59104;BME280;51449;51.676;5.812;2023-03-15T05:29:44;101440.44;;;2.52;79.66
59104;BME280;51449;51.676;5.812;2023-03-15T05:32:18;101447.25;;;2.55;80.06
59104;BME280;51449;51.676;5.812;2023-03-15T05:34:54;101446.16;;;2.56;79.27
59104;BME280;51449;51.676;5.812;2023-03-15T05:37:25;101453.00;;;2.59;79.39
59104;BME280;51449;51.676;5.812;2023-03-15T05:40:10;101456.53;;;2.59;79.07
59104;BME280;51449;51.676;5.812;2023-03-15T05:42:56;101458.97;;;2.61;79.05
59104;BME280;51449;51.676;5.812;2023-03-15T05:45:44;101470.72;;;2.61;79.40
59104;BME280;51449;51.676;5.812;2023-03-15T05:48:32;101467.69;;;2.63;79.01
59104;BME280;51449;51.676;5.812;2023-03-15T05:51:10;101473.69;;;2.65;78.89
59104;BME280;51449;51.676;5.812;2023-03-15T05:53:52;101483.47;;;2.66;78.66
59104;BME280;51449;51.676;5.812;2023-03-15T05:56:30;101484.31;;;2.66;78.65
59104;BME280;51449;51.676;5.812;2023-03-15T05:59:19;101488.69;;;2.67;78.43
59104;BME280;51449;51.676;5.812;2023-03-15T06:01:59;101488.41;;;2.69;78.50
59104;BME280;51449;51.676;5.812;2023-03-15T06:04:28;101492.75;;;2.70;78.34
59104;BME280;51449;51.676;5.812;2023-03-15T06:06:51;101495.78;;;2.73;78.02
59104;BME280;51449;51.676;5.812;2023-03-15T06:09:14;101508.31;;;2.74;78.12
59104;BME280;51449;51.676;5.812;2023-03-15T06:11:38;101511.59;;;2.76;78.17
59104;BME280;51449;51.676;5.812;2023-03-15T06:14:03;101510.78;;;2.76;78.31
59104;BME280;51449;51.676;5.812;2023-03-15T06:16:31;101518.66;;;2.77;78.71
59104;BME280;51449;51.676;5.812;2023-03-15T06:18:55;101521.13;;;2.79;78.83
59104;BME280;51449;51.676;5.812;2023-03-15T06:21:17;101522.22;;;2.83;78.55
59104;BME280;51449;51.676;5.812;2023-03-15T06:23:38;101527.13;;;2.86;78.69
59104;BME280;51449;51.676;5.812;2023-03-15T06:26:00;101525.53;;;2.90;78.22
59104;BME280;51449;51.676;5.812;2023-03-15T06:28:23;101533.97;;;2.94;77.96
59104;BME280;51449;51.676;5.812;2023-03-15T06:30:49;101528.00;;;2.97;77.90
59104;BME280;51449;51.676;5.812;2023-03-15T06:33:14;101537.28;;;3.01;78.36
59104;BME280;51449;51.676;5.812;2023-03-15T06:35:37;101537.31;;;3.06;78.02
59104;BME280;51449;51.676;5.812;2023-03-15T06:37:58;101538.41;;;3.10;77.95
59104;BME280;51449;51.676;5.812;2023-03-15T06:40:20;101543.84;;;3.10;78.19
59104;BME280;51449;51.676;5.812;2023-03-15T06:42:43;101549.59;;;3.14;77.97
59104;BME280;51449;51.676;5.812;2023-03-15T06:45:08;101558.59;;;3.19;77.95
59104;BME280;51449;51.676;5.812;2023-03-15T06:47:31;101556.50;;;3.42;77.72
59104;BME280;51449;51.676;5.812;2023-03-15T06:49:53;101565.28;;;3.75;77.19
59104;BME280;51449;51.676;5.812;2023-03-15T06:52:17;101567.81;;;4.27;76.11
59104;BME280;51449;51.676;5.812;2023-03-15T06:54:39;101569.13;;;4.61;74.74
59104;BME280;51449;51.676;5.812;2023-03-15T06:57:01;101573.56;;;5.37;72.85
59104;BME280;51449;51.676;5.812;2023-03-15T06:59:23;101574.81;;;6.05;70.98
59104;BME280;51449;51.676;5.812;2023-03-15T07:01:45;101573.78;;;6.35;69.94
59104;BME280;51449;51.676;5.812;2023-03-15T07:04:07;101585.28;;;6.37;69.24
59104;BME280;51449;51.676;5.812;2023-03-15T07:06:29;101582.44;;;6.13;69.90
59104;BME280;51449;51.676;5.812;2023-03-15T07:08:51;101591.13;;;5.75;71.45
59104;BME280;51449;51.676;5.812;2023-03-15T07:11:12;101604.69;;;5.41;72.26
59104;BME280;51449;51.676;5.812;2023-03-15T07:13:34;101614.63;;;5.11;73.06
59104;BME280;51449;51.676;5.812;2023-03-15T07:15:56;101613.03;;;4.90;73.75
59104;BME280;51449;51.676;5.812;2023-03-15T07:18:18;101622.06;;;4.75;75.09
59104;BME280;51449;51.676;5.812;2023-03-15T07:20:40;101633.00;;;4.65;74.72
59104;BME280;51449;51.676;5.812;2023-03-15T07:23:02;101631.09;;;4.55;75.63
59104;BME280;51449;51.676;5.812;2023-03-15T07:25:24;101637.91;;;4.47;76.06
59104;BME280;51449;51.676;5.812;2023-03-15T07:27:46;101643.94;;;4.44;76.45
59104;BME280;51449;51.676;5.812;2023-03-15T07:30:08;101649.66;;;4.38;76.95
59104;BME280;51449;51.676;5.812;2023-03-15T07:32:31;101650.19;;;4.35;77.58
59104;BME280;51449;51.676;5.812;2023-03-15T07:34:53;101650.47;;;4.33;77.56
59104;BME280;51449;51.676;5.812;2023-03-15T07:37:18;101654.84;;;4.39;77.96
59104;BME280;51449;51.676;5.812;2023-03-15T07:39:40;101665.75;;;4.44;77.95
59104;BME280;51449;51.676;5.812;2023-03-15T07:42:02;101660.56;;;4.43;77.95
59104;BME280;51449;51.676;5.812;2023-03-15T07:44:25;101670.41;;;4.44;77.54
59104;BME280;51449;51.676;5.812;2023-03-15T07:46:47;101667.13;;;4.52;78.25
59104;BME280;51449;51.676;5.812;2023-03-15T07:49:09;101670.97;;;4.56;77.67
59104;BME280;51449;51.676;5.812;2023-03-15T07:51:31;101678.03;;;4.62;77.92
59104;BME280;51449;51.676;5.812;2023-03-15T07:53:53;101667.97;;;4.73;78.35
59104;BME280;51449;51.676;5.812;2023-03-15T07:56:14;101667.66;;;4.80;77.88
59104;BME280;51449;51.676;5.812;2023-03-15T07:58:36;101681.31;;;4.85;77.79
59104;BME280;51449;51.676;5.812;2023-03-15T08:00:59;101677.50;;;4.86;77.33
59104;BME280;51449;51.676;5.812;2023-03-15T08:03:21;101684.88;;;4.90;77.46
59104;BME280;51449;51.676;5.812;2023-03-15T08:05:44;101685.13;;;4.94;76.84
59104;BME280;51449;51.676;5.812;2023-03-15T08:08:07;101688.66;;;5.00;77.39
59104;BME280;51449;51.676;5.812;2023-03-15T08:10:28;101686.75;;;5.05;76.54
59104;BME280;51449;51.676;5.812;2023-03-15T08:12:50;101694.38;;;5.13;76.94
59104;BME280;51449;51.676;5.812;2023-03-15T08:15:13;101701.78;;;5.13;76.34
59104;BME280;51449;51.676;5.812;2023-03-15T08:17:36;101707.22;;;5.13;76.06
59104;BME280;51449;51.676;5.812;2023-03-15T08:19:58;101718.41;;;5.17;76.04
59104;BME280;51449;51.676;5.812;2023-03-15T08:22:20;101723.63;;;5.18;75.98
59104;BME280;51449;51.676;5.812;2023-03-15T08:24:41;101726.91;;;5.20;75.72
59104;BME280;51449;51.676;5.812;2023-03-15T08:27:03;101731.78;;;5.23;76.01
59104;BME280;51449;51.676;5.812;2023-03-15T08:29:26;101727.41;;;5.32;75.73
59104;BME280;51449;51.676;5.812;2023-03-15T08:31:48;101728.22;;;5.43;75.84
59104;BME280;51449;51.676;5.812;2023-03-15T08:34:10;101729.84;;;5.49;75.95
59104;BME280;51449;51.676;5.812;2023-03-15T08:36:32;101733.94;;;5.52;75.35
59104;BME280;51449;51.676;5.812;2023-03-15T08:38:54;101742.38;;;5.55;74.68
59104;BME280;51449;51.676;5.812;2023-03-15T08:41:16;101739.94;;;5.59;74.41
59104;BME280;51449;51.676;5.812;2023-03-15T08:43:37;101738.53;;;5.67;74.95
59104;BME280;51449;51.676;5.812;2023-03-15T08:45:59;101750.56;;;5.71;73.85
59104;BME280;51449;51.676;5.812;2023-03-15T08:48:22;101749.16;;;5.78;73.78
59104;BME280;51449;51.676;5.812;2023-03-15T08:50:44;101751.59;;;5.85;73.28
59104;BME280;51449;51.676;5.812;2023-03-15T08:53:06;101753.22;;;5.91;73.39
59104;BME280;51449;51.676;5.812;2023-03-15T08:55:28;101754.88;;;5.97;73.21
59104;BME280;51449;51.676;5.812;2023-03-15T08:57:50;101752.63;;;6.05;73.04
59104;BME280;51449;51.676;5.812;2023-03-15T09:00:12;101761.38;;;6.17;72.96
59104;BME280;51449;51.676;5.812;2023-03-15T09:02:40;101754.72;;;6.28;72.28
59104;BME280;51449;51.676;5.812;2023-03-15T09:05:03;101751.94;;;6.38;72.71
59104;BME280;51449;51.676;5.812;2023-03-15T09:07:27;101757.31;;;6.54;72.95
59104;BME280;51449;51.676;5.812;2023-03-15T09:09:49;101758.03;;;6.70;73.00
59104;BME280;51449;51.676;5.812;2023-03-15T09:12:15;101768.88;;;6.85;72.46
59104;BME280;51449;51.676;5.812;2023-03-15T09:14:38;101767.97;;;6.95;71.66
59104;BME280;51449;51.676;5.812;2023-03-15T09:16:59;101770.59;;;7.10;72.27
59104;BME280;51449;51.676;5.812;2023-03-15T09:19:21;101768.00;;;7.24;70.88
59104;BME280;51449;51.676;5.812;2023-03-15T09:21:42;101769.34;;;7.32;70.00
59104;BME280;51449;51.676;5.812;2023-03-15T09:24:05;101766.22;;;7.38;69.15
59104;BME280;51449;51.676;5.812;2023-03-15T09:26:27;101765.69;;;7.41;67.10
59104;BME280;51449;51.676;5.812;2023-03-15T09:28:48;101770.84;;;7.43;66.89
59104;BME280;51449;51.676;5.812;2023-03-15T09:31:10;101774.41;;;7.43;66.19
59104;BME280;51449;51.676;5.812;2023-03-15T09:33:32;101770.25;;;7.46;66.89
59104;BME280;51449;51.676;5.812;2023-03-15T09:35:54;101777.41;;;7.47;67.49
59104;BME280;51449;51.676;5.812;2023-03-15T09:38:16;101770.84;;;7.43;65.82
59104;BME280;51449;51.676;5.812;2023-03-15T09:40:40;101764.44;;;7.53;66.76
59104;BME280;51449;51.676;5.812;2023-03-15T09:46:01;101773.03;;;7.94;65.92
59104;BME280;51449;51.676;5.812;2023-03-15T09:52:23;101772.41;;;8.02;63.29
59104;BME280;51449;51.676;5.812;2023-03-15T09:54:48;101766.94;;;8.21;63.57
59104;BME280;51449;51.676;5.812;2023-03-15T09:57:28;101775.81;;;8.37;63.18
59104;BME280;51449;51.676;5.812;2023-03-15T09:59:58;101775.41;;;8.49;62.28
59104;BME280;51449;51.676;5.812;2023-03-15T10:02:30;101771.31;;;8.65;61.56
59104;BME280;51449;51.676;5.812;2023-03-15T10:04:56;101767.91;;;8.73;58.99
59104;BME280;51449;51.676;5.812;2023-03-15T10:07:24;101768.53;;;8.84;59.76
59104;BME280;51449;51.676;5.812;2023-03-15T10:09:46;101772.16;;;8.98;59.18
59104;BME280;51449;51.676;5.812;2023-03-15T10:12:14;101776.16;;;9.06;57.17
59104;BME280;51449;51.676;5.812;2023-03-15T10:15:07;101776.22;;;9.20;58.48
59104;BME280;51449;51.676;5.812;2023-03-15T10:20:24;101784.09;;;9.40;57.04
59104;BME280;51449;51.676;5.812;2023-03-15T10:25:25;101785.78;;;9.69;55.74
59104;BME280;51449;51.676;5.812;2023-03-15T10:28:01;101778.97;;;9.80;56.29
59104;BME280;51449;51.676;5.812;2023-03-15T10:30:33;101785.19;;;9.72;53.46
59104;BME280;51449;51.676;5.812;2023-03-15T10:33:01;101783.66;;;9.66;52.65
59104;BME280;51449;51.676;5.812;2023-03-15T10:35:29;101788.03;;;9.67;51.81
59104;BME280;51449;51.676;5.812;2023-03-15T10:37:52;101785.19;;;9.72;51.11
59104;BME280;51449;51.676;5.812;2023-03-15T10:40:15;101787.31;;;9.75;49.95
59104;BME280;51449;51.676;5.812;2023-03-15T10:43:01;101796.66;;;9.60;48.13
59104;BME280;51449;51.676;5.812;2023-03-15T10:45:32;101791.84;;;9.38;49.01
59104;BME280;51449;51.676;5.812;2023-03-15T10:47:54;101794.44;;;9.16;49.40
59104;BME280;51449;51.676;5.812;2023-03-15T10:50:40;101797.81;;;8.94;50.23
59104;BME280;51449;51.676;5.812;2023-03-15T10:53:08;101805.25;;;8.74;49.94
59104;BME280;51449;51.676;5.812;2023-03-15T10:55:35;101804.34;;;8.60;50.77
59104;BME280;51449;51.676;5.812;2023-03-15T10:58:26;101809.38;;;8.53;50.62
59104;BME280;51449;51.676;5.812;2023-03-15T11:01:00;101815.84;;;8.43;50.50
59104;BME280;51449;51.676;5.812;2023-03-15T11:03:29;101818.03;;;8.41;50.52
59104;BME280;51449;51.676;5.812;2023-03-15T11:05:53;101818.41;;;8.59;50.21
59104;BME280;51449;51.676;5.812;2023-03-15T11:08:21;101820.91;;;8.74;50.14
59104;BME280;51449;51.676;5.812;2023-03-15T11:10:47;101824.47;;;8.93;48.48
59104;BME280;51449;51.676;5.812;2023-03-15T11:13:27;101820.50;;;9.18;50.13
59104;BME280;51449;51.676;5.812;2023-03-15T11:18:27;101814.16;;;9.83;51.21
59104;BME280;51449;51.676;5.812;2023-03-15T11:21:16;101807.63;;;10.07;50.06
59104;BME280;51449;51.676;5.812;2023-03-15T11:23:46;101828.53;;;10.22;48.66
59104;BME280;51449;51.676;5.812;2023-03-15T11:26:34;101830.72;;;10.39;47.97
59104;BME280;51449;51.676;5.812;2023-03-15T11:29:00;101835.97;;;10.21;46.64
59104;BME280;51449;51.676;5.812;2023-03-15T11:31:34;101840.66;;;9.93;46.88
59104;BME280;51449;51.676;5.812;2023-03-15T11:34:05;101844.53;;;9.78;48.10
59104;BME280;51449;51.676;5.812;2023-03-15T11:36:35;101849.00;;;9.74;47.66
59104;BME280;51449;51.676;5.812;2023-03-15T11:39:02;101835.47;;;9.78;47.50
59104;BME280;51449;51.676;5.812;2023-03-15T11:41:33;101842.56;;;9.79;46.88
59104;BME280;51449;51.676;5.812;2023-03-15T11:47:03;101831.28;;;9.80;46.63
59104;BME280;51449;51.676;5.812;2023-03-15T11:49:45;101829.84;;;9.83;47.71
59104;BME280;51449;51.676;5.812;2023-03-15T11:52:16;101831.28;;;9.80;47.33
59104;BME280;51449;51.676;5.812;2023-03-15T11:54:43;101831.88;;;9.91;48.01
59104;BME280;51449;51.676;5.812;2023-03-15T11:57:44;101826.59;;;10.22;49.08
59104;BME280;51449;51.676;5.812;2023-03-15T12:06:37;101818.34;;;11.09;46.91
59104;BME280;51449;51.676;5.812;2023-03-15T12:08:59;101813.03;;;11.12;44.53
59104;BME280;51449;51.676;5.812;2023-03-15T12:14:21;101809.91;;;11.28;44.61
59104;BME280;51449;51.676;5.812;2023-03-15T12:16:48;101807.06;;;11.42;45.10
59104;BME280;51449;51.676;5.812;2023-03-15T12:19:14;101809.75;;;11.55;44.88
59104;BME280;51449;51.676;5.812;2023-03-15T12:21:40;101810.97;;;11.72;44.50
59104;BME280;51449;51.676;5.812;2023-03-15T12:24:14;101812.06;;;11.62;41.85
59104;BME280;51449;51.676;5.812;2023-03-15T12:26:44;101809.00;;;11.64;42.11
59104;BME280;51449;51.676;5.812;2023-03-15T12:29:14;101807.53;;;11.66;42.49
59104;BME280;51449;51.676;5.812;2023-03-15T12:31:45;101805.81;;;11.79;42.65
59104;BME280;51449;51.676;5.812;2023-03-15T12:34:14;101818.25;;;11.68;40.25
59104;BME280;51449;51.676;5.812;2023-03-15T12:36:46;101818.00;;;11.55;41.11
59104;BME280;51449;51.676;5.812;2023-03-15T12:41:43;101807.25;;;11.45;41.06
59104;BME280;51449;51.676;5.812;2023-03-15T12:44:35;101822.31;;;11.39;40.43
59104;BME280;51449;51.676;5.812;2023-03-15T12:47:06;101800.56;;;11.38;42.07
59104;BME280;51449;51.676;5.812;2023-03-15T12:49:39;101812.31;;;11.52;42.35
59104;BME280;51449;51.676;5.812;2023-03-15T12:54:54;101813.28;;;11.78;42.47
59104;BME280;51449;51.676;5.812;2023-03-15T12:57:29;101812.94;;;11.80;40.73
59104;BME280;51449;51.676;5.812;2023-03-15T13:00:04;101809.72;;;11.78;39.33
59104;BME280;51449;51.676;5.812;2023-03-15T13:02:35;101810.47;;;11.70;40.85
59104;BME280;51449;51.676;5.812;2023-03-15T13:16:34;101823.94;;;11.94;39.92
59104;BME280;51449;51.676;5.812;2023-03-15T13:21:39;101819.06;;;11.99;40.48
59104;BME280;51449;51.676;5.812;2023-03-15T13:24:22;101817.75;;;11.97;38.25
59104;BME280;51449;51.676;5.812;2023-03-15T13:27:01;101818.16;;;11.82;37.29
59104;BME280;51449;51.676;5.812;2023-03-15T13:29:32;101816.84;;;11.79;37.20
59104;BME280;51449;51.676;5.812;2023-03-15T13:32:07;101818.94;;;11.73;37.56
59104;BME280;51449;51.676;5.812;2023-03-15T13:34:34;101806.09;;;11.69;38.75
59104;BME280;51449;51.676;5.812;2023-03-15T13:36:57;101811.97;;;11.76;38.91
59104;BME280;51449;51.676;5.812;2023-03-15T13:39:25;101809.22;;;11.85;38.84
59104;BME280;51449;51.676;5.812;2023-03-15T13:41:55;101799.38;;;11.92;39.74
59104;BME280;51449;51.676;5.812;2023-03-15T13:44:20;101795.53;;;12.02;39.21
59104;BME280;51449;51.676;5.812;2023-03-15T13:46:45;101796.00;;;11.95;37.65
59104;BME280;51449;51.676;5.812;2023-03-15T13:49:11;101812.72;;;11.90;38.90
59104;BME280;51449;51.676;5.812;2023-03-15T13:51:35;101808.81;;;11.91;38.89
59104;BME280;51449;51.676;5.812;2023-03-15T13:56:39;101829.91;;;11.87;38.89